createdAt,value
2023-01-29T00:01:50.346Z,77.15
2023-01-29T00:06:56.303Z,76.05
2023-01-29T00:11:59.186Z,76.12
2023-01-29T00:17:03.557Z,75.97
2023-01-29T00:22:06.546Z,76.41
2023-01-29T00:27:09.417Z,75.99
2023-01-29T00:32:13.774Z,75.55
2023-01-29T00:37:16.738Z,74.85
2023-01-29T00:42:37.328Z,73.80
2023-01-29T00:47:41.615Z,74.95
2023-01-29T00:52:44.526Z,76.42
2023-01-29T00:57:47.885Z,76.21
2023-01-29T01:03:07.007Z,74.71
2023-01-29T01:08:25.396Z,76.57
2023-01-29T01:13:28.307Z,76.73
2023-01-29T01:18:32.734Z,76.48
2023-01-29T01:23:36.467Z,76.08
2023-01-29T01:28:39.766Z,75.70
2023-01-29T01:33:44.000Z,76.31
2023-01-29T01:38:46.883Z,76.51
2023-01-29T01:43:51.975Z,76.34
2023-01-29T01:49:00.285Z,75.91
2023-01-29T01:54:08.633Z,76.18
2023-01-29T01:59:14.271Z,76.45
2023-01-29T02:04:39.992Z,76.33
2023-01-29T02:09:47.634Z,76.22
2023-01-29T02:14:52.527Z,76.30
2023-01-29T02:20:06.447Z,77.12
2023-01-29T02:25:55.140Z,77.02
2023-01-29T02:31:08.620Z,76.15
2023-01-29T02:36:20.870Z,76.42
2023-01-29T02:41:30.031Z,76.93
2023-01-29T02:46:40.551Z,77.27
2023-01-29T02:51:49.736Z,77.16
2023-01-29T02:56:57.252Z,76.69
2023-01-29T03:02:06.061Z,77.07
2023-01-29T03:07:36.472Z,77.87
2023-01-29T03:12:42.173Z,77.44
2023-01-29T03:17:50.670Z,77.19
2023-01-29T03:23:01.309Z,77.45
2023-01-29T03:28:24.772Z,77.40
2023-01-29T03:33:34.223Z,76.73
2023-01-29T03:38:37.263Z,76.42
2023-01-29T03:43:49.125Z,77.89
2023-01-29T03:48:59.149Z,77.15
2023-01-29T03:54:10.467Z,77.57
2023-01-29T03:59:24.069Z,77.21
2023-01-29T04:04:52.013Z,77.77
2023-01-29T04:09:59.417Z,76.68
2023-01-29T04:15:03.006Z,77.84
2023-01-29T04:20:11.298Z,78.07
2023-01-29T04:25:18.371Z,77.60
2023-01-29T04:30:27.407Z,78.40
2023-01-29T04:35:53.317Z,78.95
2023-01-29T04:41:06.414Z,78.41
2023-01-29T04:46:17.537Z,79.35
2023-01-29T04:51:26.157Z,79.32
2023-01-29T04:56:37.186Z,78.65
2023-01-29T05:01:40.372Z,78.55
2023-01-29T05:06:46.709Z,78.98
2023-01-29T05:11:51.264Z,79.17
2023-01-29T05:16:56.990Z,79.88
2023-01-29T05:22:01.532Z,78.98
2023-01-29T05:27:22.800Z,79.03
2023-01-29T05:32:25.638Z,79.27
2023-01-29T05:37:30.239Z,79.38
2023-01-29T05:42:33.972Z,79.43
2023-01-29T05:47:36.860Z,80.44
2023-01-29T05:52:41.254Z,79.68
2023-01-29T05:57:44.222Z,79.71
2023-01-29T06:02:47.583Z,79.52
2023-01-29T06:07:51.876Z,79.62
2023-01-29T06:12:54.755Z,78.88
2023-01-29T06:17:58.268Z,80.24
2023-01-29T06:23:02.628Z,80.87
2023-01-29T06:28:06.095Z,80.55
2023-01-29T06:33:08.963Z,80.15
2023-01-29T06:38:13.161Z,80.42
2023-01-29T06:43:16.115Z,81.06
2023-01-29T06:48:19.847Z,79.89
2023-01-29T06:53:24.963Z,80.12
2023-01-29T06:58:28.001Z,79.77
2023-01-29T07:03:30.904Z,80.46
2023-01-29T07:08:37.672Z,79.68
2023-01-29T07:13:40.581Z,80.28
2023-01-29T07:18:43.532Z,80.66
2023-01-29T07:23:47.830Z,80.46
2023-01-29T07:28:50.892Z,80.44
2023-01-29T07:33:53.781Z,79.95
2023-01-29T07:38:58.067Z,80.29
2023-01-29T07:44:02.849Z,80.40
2023-01-29T07:49:05.798Z,80.54
2023-01-29T07:54:10.023Z,80.04
2023-01-29T07:59:12.898Z,79.87
2023-01-29T08:04:15.833Z,79.06
2023-01-29T08:09:20.118Z,80.06
2023-01-29T08:14:23.617Z,79.77
2023-01-29T08:19:26.471Z,79.10
2023-01-29T08:24:41.613Z,79.45
2023-01-29T08:29:53.593Z,79.86
2023-01-29T08:34:56.562Z,77.58
2023-01-29T08:40:00.814Z,78.84
2023-01-29T08:45:03.737Z,78.53
2023-01-29T08:50:07.635Z,78.73
2023-01-29T08:55:12.570Z,77.54
2023-01-29T09:00:17.106Z,77.12
2023-01-29T09:05:20.497Z,78.06
2023-01-29T09:10:24.924Z,77.68
2023-01-29T09:15:27.941Z,77.10
2023-01-29T09:20:30.908Z,76.69
2023-01-29T09:25:35.328Z,76.42
2023-01-29T09:30:38.605Z,77.01
2023-01-29T09:35:42.886Z,76.18
2023-01-29T09:40:58.334Z,76.34
2023-01-29T09:46:06.413Z,75.77
2023-01-29T09:51:27.441Z,76.09
2023-01-29T09:56:32.088Z,75.83
2023-01-29T10:01:44.270Z,74.93
2023-01-29T10:07:00.943Z,75.59
2023-01-29T10:12:18.392Z,76.08
2023-01-29T10:17:43.034Z,75.60
2023-01-29T10:22:59.471Z,75.57
2023-01-29T10:28:03.787Z,74.70
2023-01-29T10:33:13.437Z,75.50
2023-01-29T10:38:25.503Z,74.01
2023-01-29T10:43:38.143Z,75.37
2023-01-29T10:48:59.071Z,75.85
2023-01-29T10:54:19.442Z,74.77
2023-01-29T10:59:40.578Z,75.16
2023-01-29T11:04:43.596Z,76.91
2023-01-29T11:09:54.713Z,75.47
2023-01-29T11:15:04.094Z,74.88
2023-01-29T11:20:26.464Z,74.41
2023-01-29T11:25:32.699Z,74.92
2023-01-29T11:30:39.765Z,74.15
2023-01-29T11:35:42.802Z,75.65
2023-01-29T11:40:46.668Z,75.43
2023-01-29T11:45:52.485Z,74.73
2023-01-29T11:51:00.649Z,74.61
2023-01-29T11:56:16.787Z,75.18
2023-01-29T12:01:34.694Z,74.75
2023-01-29T12:06:42.559Z,75.19
2023-01-29T12:11:45.607Z,75.11
2023-01-29T12:16:55.326Z,75.30
2023-01-29T12:22:03.975Z,73.91
2023-01-29T12:27:14.229Z,75.20
2023-01-29T12:32:28.971Z,74.46
2023-01-29T12:37:41.863Z,75.38
2023-01-29T12:42:49.181Z,74.21
2023-01-29T12:47:57.428Z,74.59
2023-01-29T12:53:03.574Z,75.01
2023-01-29T12:58:13.622Z,75.28
2023-01-29T13:03:22.779Z,74.84
2023-01-29T13:08:30.387Z,73.92
2023-01-29T13:13:38.159Z,72.85
2023-01-29T13:18:50.036Z,73.69
2023-01-29T13:23:55.907Z,73.18
2023-01-29T13:28:59.592Z,72.18
2023-01-29T13:34:10.992Z,72.73
2023-01-29T13:39:24.077Z,73.50
2023-01-29T13:44:30.222Z,73.43
2023-01-29T13:49:38.711Z,73.25
2023-01-29T13:54:42.567Z,74.15
2023-01-29T13:59:54.081Z,74.00
2023-01-29T14:05:47.352Z,74.72
2023-01-29T14:11:36.158Z,73.67
2023-01-29T14:16:39.361Z,76.26
2023-01-29T14:21:42.426Z,75.42
2023-01-29T14:26:49.401Z,75.88
2023-01-29T14:31:56.062Z,76.45
2023-01-29T14:37:03.173Z,75.61
2023-01-29T14:42:19.234Z,74.55
2023-01-29T14:47:43.530Z,75.09
2023-01-29T14:52:49.598Z,76.95
2023-01-29T14:57:57.947Z,75.64
2023-01-29T15:03:02.895Z,76.90
2023-01-29T15:08:15.110Z,77.70
2023-01-29T15:13:28.880Z,77.33
2023-01-29T15:18:39.819Z,77.52
2023-01-29T15:23:43.369Z,77.91
2023-01-29T15:29:03.343Z,77.96
2023-01-29T15:34:08.819Z,77.57
2023-01-29T15:39:17.237Z,78.26
2023-01-29T15:44:23.652Z,78.17
2023-01-29T15:49:32.048Z,78.66
2023-01-29T15:54:36.599Z,79.13
2023-01-29T15:59:45.998Z,79.00
2023-01-29T16:04:49.036Z,77.98
2023-01-29T16:09:53.745Z,77.94
2023-01-29T16:14:58.437Z,80.08
2023-01-29T16:20:03.697Z,79.90
2023-01-29T16:25:09.149Z,80.03
2023-01-29T16:30:17.371Z,79.75
2023-01-29T16:35:20.767Z,79.70
2023-01-29T16:40:32.440Z,79.40
2023-01-29T16:45:36.787Z,78.84
2023-01-29T16:50:54.020Z,79.92
2023-01-29T16:56:03.718Z,79.68
2023-01-29T17:01:10.481Z,79.52
2023-01-29T17:06:19.498Z,79.13
2023-01-29T17:11:31.138Z,79.20
2023-01-29T17:16:37.762Z,78.91
2023-01-29T17:21:40.667Z,79.21
2023-01-29T17:26:43.783Z,79.01
2023-01-29T17:31:48.194Z,78.73
2023-01-29T17:36:51.109Z,78.69
2023-01-29T17:41:56.115Z,78.85
2023-01-29T17:47:00.856Z,77.94
2023-01-29T17:52:04.742Z,77.15
2023-01-29T17:57:07.630Z,77.74
2023-01-29T18:02:29.189Z,77.25
2023-01-29T18:07:32.989Z,78.10
2023-01-29T18:12:35.833Z,77.54
2023-01-29T18:17:40.785Z,78.17
2023-01-29T18:22:43.740Z,77.84
2023-01-29T18:27:46.757Z,77.30
2023-01-29T18:32:51.329Z,76.87
2023-01-29T18:37:54.270Z,76.44
2023-01-29T18:42:59.696Z,76.57
2023-01-29T18:48:04.086Z,75.89
2023-01-29T18:53:07.680Z,76.05
2023-01-29T18:58:33.638Z,76.41
2023-01-29T19:03:34.914Z,76.32
2023-01-29T19:08:37.873Z,76.04
2023-01-29T19:13:42.530Z,75.61
2023-01-29T19:18:46.864Z,75.69
2023-01-29T19:23:49.822Z,75.70
2023-01-29T19:28:52.844Z,75.24
2023-01-29T19:33:57.242Z,75.69
2023-01-29T19:39:00.157Z,76.44
2023-01-29T19:44:03.301Z,76.38
2023-01-29T19:49:10.233Z,76.56
2023-01-29T19:54:13.386Z,76.71
2023-01-29T19:59:16.242Z,75.82
2023-01-29T20:04:20.653Z,76.88
2023-01-29T20:09:23.691Z,76.33
2023-01-29T20:14:26.727Z,75.71
2023-01-29T20:19:31.049Z,76.74
2023-01-29T20:24:39.049Z,76.44
2023-01-29T20:29:43.679Z,77.06
2023-01-29T20:34:52.068Z,76.77
2023-01-29T20:39:55.190Z,76.43
2023-01-29T20:44:58.182Z,77.90
2023-01-29T20:50:08.444Z,78.06
2023-01-29T20:55:13.488Z,77.97
2023-01-29T21:00:17.585Z,77.81
2023-01-29T21:05:22.146Z,77.82
2023-01-29T21:10:25.251Z,77.61
2023-01-29T21:15:28.333Z,78.13
2023-01-29T21:20:32.900Z,78.05
2023-01-29T21:25:36.077Z,77.62
2023-01-29T21:30:39.104Z,77.35
2023-01-29T21:35:43.391Z,77.54
2023-01-29T21:40:46.342Z,76.90
2023-01-29T21:45:56.451Z,76.65
2023-01-29T21:51:00.777Z,76.66
2023-01-29T21:56:05.916Z,76.86
2023-01-29T22:01:35.126Z,76.01
2023-01-29T22:06:33.117Z,76.04
2023-01-29T22:11:35.999Z,76.20
2023-01-29T22:16:38.990Z,76.71
2023-01-29T22:21:43.319Z,75.96
2023-01-29T22:26:47.851Z,75.51
2023-01-29T22:31:51.441Z,75.83
2023-01-29T22:36:55.690Z,75.59
2023-01-29T22:41:58.550Z,74.53
2023-01-29T22:47:01.934Z,75.12
2023-01-29T22:52:12.287Z,75.57
2023-01-29T22:57:16.484Z,75.00
2023-01-29T23:02:19.369Z,75.69
2023-01-29T23:07:23.694Z,75.22
2023-01-29T23:12:26.605Z,75.31
2023-01-29T23:17:29.522Z,75.36
2023-01-29T23:22:33.782Z,74.99
2023-01-29T23:27:36.681Z,75.70
2023-01-29T23:32:39.568Z,75.34
2023-01-29T23:37:43.828Z,75.36
2023-01-29T23:42:49.049Z,75.11
2023-01-29T23:47:51.912Z,75.10
2023-01-29T23:52:56.122Z,74.57
2023-01-29T23:57:58.964Z,75.28
